Onalaska, WI (54650)

10:30 AM CDT on July 28, 2016 (GMT -0500)
APRSWXNET | | Change Station

Elev 682 ft 43.88 °N, 91.23 °W | Updated 29 minutes ago

Light Rain
Light Rain Mist
70 °F
Feels Like 70 °F
N
0
Wind Variable Wind from North
Gusts 0.0 mph

Today
High -- | Low -- °F
--% Chance of Precip.
Yesterday
High -- | Low -- °F
Precip. -- in
Pressure 29.93 in
Visibility 3.0 miles
Clouds Mostly Cloudy 600 ft
Overcast 1000 ft
Dew Point 66 °F
Humidity 86%
Rainfall in
Snow Depth Not available.
5:49 AM 8:32 PM
Waning Crescent, 31% visible
SPECI KLSE 281505Z 35005KT 3SM -RA BR BKN006 OVC010 21/19 A2993 RMK AO2 RAB1458 CIG 004V008 P0001 T02060194 $
Pressure 29.93 in
Visibility 3.0 miles
Clouds Mostly Cloudy 600 ft
Overcast 1000 ft
Dew Point 66 °F
Humidity 86%
Rainfall in
Snow Depth Not available.
5:49 AM 8:32 PM
Waning Crescent, 31% visible
SPECI KLSE 281505Z 35005KT 3SM -RA BR BKN006 OVC010 21/19 A2993 RMK AO2 RAB1458 CIG 004V008 P0001 T02060194 $

10-Day Weather Forecast

Almanac

Astronomy

Jul. 28, 2016 Rise Set
Actual Time
Civil Twilight
Nautical Twilight
Astronomical Twilight
Moon
Length of Visible Light
Length of Day
Tomorrow will be .
, % of the Moon is Illuminated

Today's Extremes

State Highs State Lows

Community

WunderPhotos

Upload Photos

1,928,124 photos uploaded!

WunderBlog® & News

Nearby

Air Quality

  Air Quality AQ Index Pollutant
Not available.

Snow Depth

Station Depth Elevation

Earthquake Activity

City Distance Mag. Time & Date
Minimum magnitude displayed is 2.5.

Coastal Water Temperatures

Place Temperature

Stations

Nearby Weather Stations

Station Location Temp. Windchill Dew Point Humidity Wind Precip. Elev Updated Type
                   

Watches & Warnings

There are currently no watches in effect.